Presidente Kubitschek, Brazil
Current Conditions -  °F | °C
As of 9:00 PM on Wednesday 17 Dec 2014 (Local Time) from SBLS Reporting Station
Clear Clear  
Wind Chill: 77°   Ceiling: Unl
Heat Index: 79°   Visibility: 6mi
Dew Point: 61°   Wind: 7mph
Humidity: 57%   Direction: 120°ESE
Pressure: 29.94"   Gusts: NA
Location:  18.61°S, 43.56°W
Report Text: SBLS 172300Z 12006KT CAVOK 25/16 Q1014
Loading
Personal Weather Stations






























Interactive Weather Map New forecast layout! Learn more

10-Day Weather Forecast

Advertisements
Track Severe Weather on mobile